Terminal Aerodrome Forecast
Issued by NWS

Home | Current Version | Previous Version | Text Only | Print | Product List | Glossary On
Versions: 1 2 3 4 5 6 7 8 9 10 11 12 13 14
000
FTUS43 KGRR 012326
TAFAZO
TAF
KAZO 012326Z 0200/0224 26012KT P6SM SCT070
     FM021600 23015G24KT P6SM FEW050=

USA.gov is the U.S. government's official web portal to all federal, state and local government web resources and services.